This is the latest recevied weather packets stored in our database for station/object KP4OZ. If no packets are shown the sender has not sent any weather packets the latest 1 day(s).
| Time | Temp. | Humidity | Pressure | Rain* | Wind** | Luminosity | Snow |
|---|---|---|---|---|---|---|---|
| 1778093477 | 32.78° C | 53% | 1015.8 hPa | 0 mm | - | - | - |
| 1778091659 | 32.78° C | 56% | 1016.4 hPa | 0 mm | - | - | - |
| 1778090750 | 33.89° C | 51% | 1016.4 hPa | 0 mm | - | - | - |
| 1778090447 | 33.89° C | 47% | 1016.6 hPa | 0 mm | - | - | - |
| 1778090143 | 32.78° C | 50% | 1016.5 hPa | 0 mm | - | - | - |
| 1778088932 | 31.67° C | 62% | 1017.1 hPa | 0 mm | - | - | - |
| 1778088022 | 30.56° C | 65% | 1017.3 hPa | 0 mm | - | - | - |
| 1778087115 | 31.11° C | 64% | 1017.6 hPa | 0 mm | - | - | - |
| 1778085903 | 30.56° C | 65% | 1017.8 hPa | 0 mm | - | - | - |
| 1778083478 | 30.56° C | 65% | 1018.3 hPa | 0 mm | - | - | - |
| 1778083175 | 30.56° C | 65% | 1018.6 hPa | 0 mm | - | - | - |
| 1778082873 | 30° C | 69% | 1018.6 hPa | 0 mm | - | - | - |
| 1778081754 | 30.56° C | 66% | 1018.8 hPa | 0 mm | - | - | - |
| 1778079937 | 30.56° C | 67% | 1019 hPa | 0 mm | - | - | - |
| 1778077516 | 31.11° C | 66% | 1018.9 hPa | 0 mm | - | - | - |
| 1778077214 | 31.11° C | 67% | 1019 hPa | 0 mm | - | - | - |
| 1778076004 | 30.56° C | 64% | 1019.1 hPa | 0 mm | - | - | - |
| 1778072064 | 31.11° C | 62% | 1019.1 hPa | 0 mm | - | - | - |
| 1778071762 | 30.56° C | 63% | 1018.9 hPa | 0 mm | - | - | - |
| 1778071459 | 30° C | 64% | 1018.7 hPa | 0 mm | - | - | - |
| 1778069947 | 29.44° C | 69% | 1018.8 hPa | 0 mm | - | - | - |
| 1778069038 | 28.89° C | 71% | 1018.7 hPa | 0 mm | - | - | - |
| 1778068131 | 28.33° C | 73% | 1018.7 hPa | 0 mm | - | - | - |
| 1778067224 | 27.22° C | 77% | 1018.5 hPa | 0 mm | - | - | - |
| 1778066618 | 27.22° C | 78% | 1018.4 hPa | 0 mm | - | - | - |
* Rain latest hour (hover to see other rain measurements)
** Current wind speed in m/s (hover to see current wind gust speed)